Aérodrome :
LOGIN :

S'inscrire | Disclaimer

   EN    FR    IT 

 










Légende :    VFR   VFR Marginal   IFR   IFR Intensif   IFR Très Intensif
Visi : 
Plafond : 
>= 8 km
>= 3000ft
5 à 8 km
1000 à 3000 ft
1500m à 5 km
500 à 1000 ft
800 à 1500m
200 à 500 ft
< 800m
< 200 ft
Symboles :   Orages  Brouillard  Fortes neiges  Fortes précipitations  Vent > 20 kt
SIGMETs :   Divers  Orages  Givrage  Turbulence  Onde Orograph.  Cendres Volcan.






- Altitude de l'aérodrome : 288 ft
- Code IATA : BZZ


EGVN - RAF Brize Norton

DERNIER METAR :
  • 211020Z 30006KT 9999 BKN028 BKN250 19/12 Q1011 NOSIG

METARs EXPIRÉS :
  • 210950Z 33009KT 9999 SCT027 BKN250 19/12 Q1010 NOSIG RMK BLU BLU
  • 210920Z 33007KT 9999 SCT025 19/12 Q1010 NOSIG RMK BLU BLU
  • 210850Z 34006KT 9999 SCT022 BKN250 18/12 Q1010 BECMG SCT030 RMK WHT BECMG BLU
  • 210820Z 34007KT 9999 FEW020 SCT046 BKN250 16/11 Q1010 TEMPO SCT022 RMK BLU TEMPO WHT
  • 210750Z 34007KT 9999 FEW018 BKN048 16/12 Q1010 TEMPO SCT020 RMK BLU TEMPO WHT
  • 210720Z 34008KT 9999 FEW015 BKN048 15/11 Q1010 TEMPO SCT015
  • 210650Z 34008KT 9999 FEW012 SCT035 BKN048 15/11 Q1010 TEMPO SCT015 RMK BLU TEMPO WHT
  • 210550Z 33008KT 9999 FEW012 BKN030 15/12 Q1009 NOSIG RMK BLU BLU

TAF TAF EGVN
Valide du 21 à 09h jusqu'au 22 à 09h UTC


210728Z 2109/2209 31009KT 9999 SCT035
PROB40
TEMPO 2109/2111 SCT020
BECMG 2202/2205 BKN008
PROB40
TEMPO 2205/2208 4000 -DZ BKN006



MET'MAP, la Météo Aéronautique d'un coup d'oeil ! - Copyright ORBIFLY Décembre 2007 - Disclaimer

ORBIFLY MET'MAP TEAM :

Programmation & Développement : Alexandra Zaïnal
Sur une idée originale de : Baudouin d'Aumeries
Soutien technique & logistique : Manuel Goepfert
Assistance : Marc-Olivier Méhu




SOURCES & CREDITS :

   NOAA